Time;durP1;ratioP1;P1;durP2;ratioP2;P2;SDS_P1;SDS_P2;PMS_P1;PMS_P2;Temp;Humidity;BMP_temperature;BMP_pressure;BME280_temperature;BME280_humidity;BME280_pressure;Samples;Min_cycle;Max_cycle;Signal;HPM_P1;HPM_P2
2023/08/29 00:01:13;;;;;;;4.97;3.03;;;;;;;;;;6240835;28;20049;-69
2023/08/29 00:04:15;;;;;;;5.55;2.47;;;;;;;;;;6233948;28;20435;-69
2023/08/29 00:07:17;;;;;;;4.80;2.40;;;;;;;;;;6241056;27;20045;-69
2023/08/29 00:10:19;;;;;;;5.57;2.88;;;;;;;;;;6229683;28;20049;-69
2023/08/29 00:13:21;;;;;;;6.13;3.28;;;;;;;;;;6238073;28;20048;-70
2023/08/29 00:16:23;;;;;;;5.20;3.17;;;;;;;;;;6223369;28;20185;-69
2023/08/29 00:19:25;;;;;;;5.75;2.65;;;;;;;;;;6256403;28;20042;-69
2023/08/29 00:22:27;;;;;;;6.53;2.85;;;;;;;;;;6244232;27;20102;-69
2023/08/29 00:25:30;;;;;;;6.35;3.03;;;;;;;;;;6235292;28;20125;-69
2023/08/29 00:28:32;;;;;;;5.32;2.75;;;;;;;;;;6231606;28;20038;-69
2023/08/29 00:31:34;;;;;;;3.85;2.80;;;;;;;;;;6217152;28;20413;-69
2023/08/29 00:34:36;;;;;;;7.13;3.15;;;;;;;;;;6239539;28;20205;-69
2023/08/29 00:37:38;;;;;;;7.25;3.47;;;;;;;;;;6277568;28;20045;-70
2023/08/29 00:40:40;;;;;;;7.72;3.20;;;;;;;;;;6265468;28;20054;-70
2023/08/29 00:43:43;;;;;;;6.47;3.08;;;;;;;;;;6233165;27;20046;-70
2023/08/29 00:46:45;;;;;;;4.60;2.90;;;;;;;;;;6269471;27;20048;-69
2023/08/29 00:49:47;;;;;;;5.40;4.43;;;;;;;;;;6231390;28;20444;-70
2023/08/29 00:52:50;;;;;;;6.88;3.15;;;;;;;;;;6273853;27;20488;-69
2023/08/29 00:55:52;;;;;;;6.90;2.97;;;;;;;;;;6250843;27;20041;-69
2023/08/29 00:58:54;;;;;;;5.50;3.20;;;;;;;;;;6233664;28;20057;-69
2023/08/29 01:01:57;;;;;;;5.70;2.72;;;;;;;;;;6229311;28;20571;-69
2023/08/29 01:04:59;;;;;;;5.35;2.78;;;;;;;;;;6219578;28;20061;-69
2023/08/29 01:08:01;;;;;;;10.65;3.17;;;;;;;;;;6233940;28;20052;-69
2023/08/29 01:11:06;;;;;;;5.60;3.45;;;;;;;;;;6241129;27;20076;-69
2023/08/29 01:14:14;;;;;;;10.57;2.85;;;;;;;;;;6231088;28;20447;-68
2023/08/29 01:17:22;;;;;;;6.70;2.30;;;;;;;;;;6228827;28;20078;-69
2023/08/29 01:20:27;;;;;;;5.72;3.30;;;;;;;;;;6218071;28;20523;-69
2023/08/29 01:23:59;;;;;;;6.25;3.13;;;;;;;;;;6213989;28;20046;-69
2023/08/29 01:27:01;;;;;;;5.53;2.72;;;;;;;;;;6216267;28;20140;-69
2023/08/29 01:30:05;;;;;;;4.95;3.20;;;;;;;;;;6221058;28;20542;-69
2023/08/29 01:33:07;;;;;;;5.05;3.33;;;;;;;;;;6214630;28;20812;-69
2023/08/29 01:36:12;;;;;;;5.32;2.85;;;;;;;;;;6255681;27;20472;-70
2023/08/29 01:39:13;;;;;;;5.00;3.72;;;;;;;;;;6234218;28;20054;-69
2023/08/29 01:42:15;;;;;;;3.90;2.80;;;;;;;;;;6248944;27;20053;-69
2023/08/29 01:45:20;;;;;;;6.47;3.03;;;;;;;;;;6234039;28;20037;-69
2023/08/29 01:48:22;;;;;;;4.85;2.75;;;;;;;;;;6234543;28;20067;-70
2023/08/29 01:51:25;;;;;;;5.20;2.67;;;;;;;;;;6285927;27;20475;-69
2023/08/29 01:54:27;;;;;;;6.05;3.28;;;;;;;;;;6255728;27;20048;-69
2023/08/29 01:57:30;;;;;;;4.95;3.08;;;;;;;;;;6252864;27;20045;-69
2023/08/29 02:00:33;;;;;;;7.95;4.40;;;;;;;;;;6231496;27;20043;-69
2023/08/29 02:03:35;;;;;;;4.72;2.72;;;;;;;;;;6209963;28;20443;-69
2023/08/29 02:06:37;;;;;;;5.18;3.28;;;;;;;;;;6242283;27;20504;-68
2023/08/29 02:09:40;;;;;;;5.13;3.60;;;;;;;;;;6228340;27;20047;-69
2023/08/29 02:12:42;;;;;;;6.22;3.38;;;;;;;;;;6227105;28;20554;-69
2023/08/29 02:15:44;;;;;;;5.38;3.15;;;;;;;;;;6277962;27;20722;-69
2023/08/29 02:18:46;;;;;;;4.03;2.50;;;;;;;;;;6227245;28;20103;-69
2023/08/29 02:21:48;;;;;;;5.35;3.17;;;;;;;;;;6239992;27;20504;-69
2023/08/29 02:24:50;;;;;;;5.93;3.53;;;;;;;;;;6229529;28;20051;-69
2023/08/29 02:27:52;;;;;;;5.45;2.72;;;;;;;;;;6296136;27;20095;-69
2023/08/29 02:30:54;;;;;;;5.63;3.50;;;;;;;;;;6258814;27;20057;-69
2023/08/29 02:33:56;;;;;;;7.38;4.18;;;;;;;;;;6232302;28;20054;-69
2023/08/29 02:37:00;;;;;;;5.35;3.22;;;;;;;;;;6267364;27;20045;-69
2023/08/29 02:40:08;;;;;;;6.55;3.65;;;;;;;;;;6245900;27;20524;-69
2023/08/29 02:43:10;;;;;;;5.38;3.60;;;;;;;;;;6233031;28;20158;-69
2023/08/29 02:46:12;;;;;;;6.10;3.55;;;;;;;;;;6248435;27;20049;-69
2023/08/29 02:49:14;;;;;;;5.45;3.75;;;;;;;;;;6223713;28;20065;-69
2023/08/29 02:52:16;;;;;;;6.05;3.72;;;;;;;;;;6278978;27;20051;-69
2023/08/29 02:55:18;;;;;;;5.13;3.95;;;;;;;;;;6254470;27;20086;-69
2023/08/29 02:58:20;;;;;;;5.78;4.10;;;;;;;;;;6244008;27;20050;-69
2023/08/29 03:01:22;;;;;;;8.00;3.35;;;;;;;;;;6231948;28;20053;-69
2023/08/29 03:04:24;;;;;;;4.90;3.58;;;;;;;;;;6232434;27;20050;-69
2023/08/29 03:07:26;;;;;;;4.85;3.60;;;;;;;;;;6259699;27;20040;-69
2023/08/29 03:10:28;;;;;;;6.22;4.13;;;;;;;;;;6224745;27;20520;-69
2023/08/29 03:13:31;;;;;;;6.82;3.75;;;;;;;;;;6289252;27;20599;-69
2023/08/29 03:16:33;;;;;;;6.20;4.07;;;;;;;;;;6214000;28;20095;-69
2023/08/29 03:19:36;;;;;;;6.53;4.45;;;;;;;;;;6279139;27;20073;-69
2023/08/29 03:22:38;;;;;;;6.35;4.00;;;;;;;;;;6226843;28;20052;-69
2023/08/29 03:25:40;;;;;;;6.70;3.95;;;;;;;;;;6236032;27;20105;-69
2023/08/29 03:28:45;;;;;;;10.82;4.85;;;;;;;;;;6287063;27;20989;-69
2023/08/29 03:31:47;;;;;;;5.35;3.83;;;;;;;;;;6228520;28;20525;-69
2023/08/29 03:34:54;;;;;;;7.47;4.32;;;;;;;;;;6223103;28;20158;-69
2023/08/29 03:37:56;;;;;;;5.40;3.22;;;;;;;;;;6277587;27;20113;-69
2023/08/29 03:40:58;;;;;;;6.10;4.07;;;;;;;;;;6270770;27;20132;-69
2023/08/29 03:44:00;;;;;;;6.07;4.10;;;;;;;;;;6236233;27;20056;-69
2023/08/29 03:47:04;;;;;;;6.93;3.88;;;;;;;;;;6217817;28;20065;-69
2023/08/29 03:50:06;;;;;;;5.80;4.25;;;;;;;;;;6235855;28;20055;-69
2023/08/29 03:53:09;;;;;;;7.05;4.13;;;;;;;;;;6261706;28;20119;-69
2023/08/29 03:56:12;;;;;;;8.57;4.53;;;;;;;;;;6225552;28;20130;-69
2023/08/29 03:59:14;;;;;;;8.00;4.10;;;;;;;;;;6227920;28;20558;-69
2023/08/29 04:02:16;;;;;;;6.68;4.15;;;;;;;;;;6228837;28;20049;-69
2023/08/29 04:05:18;;;;;;;5.90;4.38;;;;;;;;;;6264264;28;20441;-69
2023/08/29 04:08:22;;;;;;;7.20;3.58;;;;;;;;;;6230048;28;20037;-69
2023/08/29 04:11:24;;;;;;;7.53;4.10;;;;;;;;;;6231895;28;20825;-69
2023/08/29 04:14:26;;;;;;;8.18;3.90;;;;;;;;;;6247178;28;20539;-69
2023/08/29 04:17:29;;;;;;;5.57;3.85;;;;;;;;;;6232684;28;20041;-69
2023/08/29 04:20:32;;;;;;;5.28;3.72;;;;;;;;;;6236293;28;20057;-68
2023/08/29 04:23:36;;;;;;;6.35;3.30;;;;;;;;;;6227896;28;20045;-69
2023/08/29 04:26:38;;;;;;;4.78;3.03;;;;;;;;;;6234331;27;20042;-69
2023/08/29 04:29:40;;;;;;;5.45;2.95;;;;;;;;;;6247392;27;20757;-69
2023/08/29 04:32:42;;;;;;;5.82;3.40;;;;;;;;;;6216374;28;20049;-68
2023/08/29 04:35:44;;;;;;;6.22;3.20;;;;;;;;;;6243215;27;20064;-68
2023/08/29 04:38:49;;;;;;;7.93;3.38;;;;;;;;;;6224291;28;20148;-69
2023/08/29 04:41:51;;;;;;;;;;;;;;;;;;6278345;27;20547;-68
2023/08/29 04:44:53;;;;;;;7.18;3.38;;;;;;;;;;6254406;27;19963;-68
2023/08/29 04:47:56;;;;;;;7.32;4.38;;;;;;;;;;6239708;28;20046;-68
2023/08/29 04:50:58;;;;;;;5.38;3.88;;;;;;;;;;6259677;27;20228;-69
2023/08/29 04:54:00;;;;;;;5.03;3.28;;;;;;;;;;6281273;27;20622;-68
2023/08/29 04:57:04;;;;;;;7.90;4.03;;;;;;;;;;6231255;28;20062;-69
2023/08/29 05:00:09;;;;;;;5.50;4.07;;;;;;;;;;6251002;27;20049;-68
2023/08/29 05:03:11;;;;;;;7.22;3.95;;;;;;;;;;6272936;27;20154;-69
2023/08/29 05:06:15;;;;;;;;;;;;;;;;;;6225480;28;20103;-68
2023/08/29 05:09:17;;;;;;;6.25;3.17;;;;;;;;;;6255697;27;20409;-69
2023/08/29 05:12:21;;;;;;;7.82;3.20;;;;;;;;;;6226719;28;20045;-69
2023/08/29 05:15:23;;;;;;;6.53;4.38;;;;;;;;;;6268267;27;20097;-68
2023/08/29 05:18:27;;;;;;;5.00;3.05;;;;;;;;;;6226743;28;20575;-68
2023/08/29 05:21:31;;;;;;;9.90;4.07;;;;;;;;;;6232988;27;20053;-68
2023/08/29 05:24:33;;;;;;;7.22;4.00;;;;;;;;;;6231949;28;20061;-70
2023/08/29 05:27:35;;;;;;;14.65;4.90;;;;;;;;;;6238776;27;20132;-69
2023/08/29 05:30:37;;;;;;;5.25;3.25;;;;;;;;;;6227095;28;20497;-68
2023/08/29 05:33:39;;;;;;;5.55;2.83;;;;;;;;;;6235656;27;20506;-69
2023/08/29 05:36:42;;;;;;;5.03;3.20;;;;;;;;;;6236093;27;20041;-69
2023/08/29 05:39:44;;;;;;;5.72;2.95;;;;;;;;;;6229916;28;20750;-68
2023/08/29 05:42:46;;;;;;;5.38;3.28;;;;;;;;;;6226394;28;20069;-68
2023/08/29 05:45:48;;;;;;;5.00;2.67;;;;;;;;;;6245040;27;20132;-68
2023/08/29 05:48:50;;;;;;;4.82;3.10;;;;;;;;;;6235559;28;20474;-68
2023/08/29 05:51:52;;;;;;;7.68;3.60;;;;;;;;;;6262643;27;20127;-68
2023/08/29 05:54:54;;;;;;;5.95;3.20;;;;;;;;;;6247346;27;20864;-68
2023/08/29 05:57:57;;;;;;;6.82;2.75;;;;;;;;;;6248292;27;20468;-68
2023/08/29 06:00:59;;;;;;;7.50;2.65;;;;;;;;;;6234904;28;20041;-68
2023/08/29 06:04:04;;;;;;;4.25;2.55;;;;;;;;;;6232620;28;20045;-68
2023/08/29 06:07:07;;;;;;;5.00;3.20;;;;;;;;;;6229934;28;20137;-68
2023/08/29 06:10:09;;;;;;;7.60;3.03;;;;;;;;;;6230498;28;20041;-68
2023/08/29 06:13:11;;;;;;;6.32;3.45;;;;;;;;;;6225325;28;20049;-69
2023/08/29 06:16:13;;;;;;;5.70;2.60;;;;;;;;;;6233482;27;20053;-68
2023/08/29 06:19:16;;;;;;;8.80;3.67;;;;;;;;;;6222438;28;20061;-68
2023/08/29 06:22:18;;;;;;;5.30;3.17;;;;;;;;;;6257479;27;20078;-68
2023/08/29 06:25:20;;;;;;;11.07;3.60;;;;;;;;;;6247457;27;20071;-68
2023/08/29 06:28:22;;;;;;;7.10;2.90;;;;;;;;;;6233192;27;20592;-68
2023/08/29 06:31:24;;;;;;;6.82;3.03;;;;;;;;;;6259044;27;20829;-68
2023/08/29 06:34:26;;;;;;;7.72;4.13;;;;;;;;;;6231706;27;20066;-68
2023/08/29 06:37:28;;;;;;;9.70;2.55;;;;;;;;;;6238731;27;20141;-68
2023/08/29 06:40:30;;;;;;;8.65;2.85;;;;;;;;;;6240436;27;20138;-68
2023/08/29 06:43:34;;;;;;;7.07;2.65;;;;;;;;;;6232863;28;20487;-67
2023/08/29 06:46:36;;;;;;;7.10;3.60;;;;;;;;;;6257784;27;20050;-67
2023/08/29 06:49:38;;;;;;;5.90;2.38;;;;;;;;;;6242676;27;20082;-67
2023/08/29 06:52:40;;;;;;;7.30;2.97;;;;;;;;;;6238956;27;20689;-68
2023/08/29 06:55:42;;;;;;;6.15;2.42;;;;;;;;;;6230162;28;20805;-67
2023/08/29 06:58:44;;;;;;;5.07;2.95;;;;;;;;;;6239273;27;20118;-68
2023/08/29 07:01:46;;;;;;;5.07;2.83;;;;;;;;;;6253651;27;20064;-68
2023/08/29 07:04:48;;;;;;;5.60;2.50;;;;;;;;;;6231073;27;20049;-65
2023/08/29 07:07:50;;;;;;;7.20;2.50;;;;;;;;;;6233061;27;20042;-68
2023/08/29 07:10:52;;;;;;;6.97;2.72;;;;;;;;;;6234715;27;20060;-69
2023/08/29 07:13:55;;;;;;;7.63;2.78;;;;;;;;;;6233465;28;21428;-69
2023/08/29 07:16:57;;;;;;;7.45;2.67;;;;;;;;;;6238439;27;20060;-69
2023/08/29 07:20:11;;;;;;;4.93;2.45;;;;;;;;;;6226703;28;20042;-69
2023/08/29 07:23:14;;;;;;;9.63;3.05;;;;;;;;;;6251652;27;20053;-69
2023/08/29 07:26:16;;;;;;;4.85;2.38;;;;;;;;;;6229595;27;20722;-69
2023/08/29 07:29:19;;;;;;;4.95;2.83;;;;;;;;;;6259601;27;20035;-69
2023/08/29 07:32:21;;;;;;;4.57;2.38;;;;;;;;;;6284205;27;20830;-69
2023/08/29 07:35:23;;;;;;;8.52;3.08;;;;;;;;;;6246161;27;20042;-69
2023/08/29 07:38:26;;;;;;;6.28;2.55;;;;;;;;;;6253270;27;20042;-69
2023/08/29 07:41:28;;;;;;;7.47;2.47;;;;;;;;;;6261681;27;20136;-69
2023/08/29 07:44:30;;;;;;;5.25;2.33;;;;;;;;;;6278508;27;20046;-70
2023/08/29 07:47:33;;;;;;;6.20;3.55;;;;;;;;;;6269116;27;20041;-68
2023/08/29 07:50:35;;;;;;;4.90;2.60;;;;;;;;;;6287733;28;20053;-69
2023/08/29 07:53:37;;;;;;;4.82;2.60;;;;;;;;;;6233664;28;20556;-69
2023/08/29 07:56:39;;;;;;;6.25;2.90;;;;;;;;;;6255880;28;20057;-69
2023/08/29 07:59:41;;;;;;;4.97;2.75;;;;;;;;;;6292705;28;20041;-69
2023/08/29 08:02:44;;;;;;;4.57;2.38;;;;;;;;;;6265969;28;20055;-69
2023/08/29 08:05:46;;;;;;;5.55;2.55;;;;;;;;;;6268928;27;20133;-69
2023/08/29 08:08:48;;;;;;;5.50;3.35;;;;;;;;;;6245911;28;20174;-69
2023/08/29 08:11:51;;;;;;;4.70;2.50;;;;;;;;;;6270220;28;20053;-69
2023/08/29 08:14:53;;;;;;;5.40;2.67;;;;;;;;;;6253224;28;20046;-69
2023/08/29 08:17:55;;;;;;;4.97;3.05;;;;;;;;;;6296404;27;20039;-69
2023/08/29 08:20:57;;;;;;;5.70;2.88;;;;;;;;;;6280791;28;20154;-68
2023/08/29 08:24:00;;;;;;;6.63;3.13;;;;;;;;;;6261825;27;20183;-69
2023/08/29 08:27:02;;;;;;;5.22;2.55;;;;;;;;;;6235184;27;20057;-69
2023/08/29 08:30:08;;;;;;;6.82;3.33;;;;;;;;;;6231888;28;20065;-68
2023/08/29 08:33:10;;;;;;;5.97;3.40;;;;;;;;;;6250102;28;20050;-70
2023/08/29 08:36:12;;;;;;;5.78;3.13;;;;;;;;;;6236649;28;20553;-69
2023/08/29 08:39:14;;;;;;;8.85;3.15;;;;;;;;;;6251570;28;20053;-69
2023/08/29 08:42:17;;;;;;;4.00;2.40;;;;;;;;;;6249186;28;20053;-68
2023/08/29 08:45:19;;;;;;;5.95;3.03;;;;;;;;;;6226457;28;20053;-68
2023/08/29 08:48:21;;;;;;;4.50;2.78;;;;;;;;;;6236042;28;20593;-68
2023/08/29 08:51:24;;;;;;;4.95;2.63;;;;;;;;;;6233451;28;20041;-68
2023/08/29 08:54:26;;;;;;;4.47;2.75;;;;;;;;;;6231849;28;20049;-68
2023/08/29 08:57:28;;;;;;;6.07;2.80;;;;;;;;;;6233396;28;20056;-68
2023/08/29 09:00:31;;;;;;;5.25;3.08;;;;;;;;;;6233503;28;20049;-68
2023/08/29 09:03:34;;;;;;;4.78;2.92;;;;;;;;;;6233116;28;20041;-70
2023/08/29 09:06:38;;;;;;;7.13;2.90;;;;;;;;;;6240252;27;20045;-69
2023/08/29 09:09:41;;;;;;;5.25;2.30;;;;;;;;;;6252184;27;20045;-68
2023/08/29 09:12:51;;;;;;;5.13;2.53;;;;;;;;;;6244155;27;20302;-69
2023/08/29 09:15:53;;;;;;;5.47;2.80;;;;;;;;;;6252558;27;20037;-69
2023/08/29 09:18:55;;;;;;;4.80;2.50;;;;;;;;;;6253229;27;20042;-68
2023/08/29 09:21:58;;;;;;;7.65;2.67;;;;;;;;;;6250227;27;20062;-69
2023/08/29 09:25:03;;;;;;;4.63;2.38;;;;;;;;;;6240332;27;20054;-68
2023/08/29 09:28:10;;;;;;;6.13;2.65;;;;;;;;;;6224568;27;20556;-68
2023/08/29 09:31:14;;;;;;;6.82;2.80;;;;;;;;;;6234080;28;20353;-67
2023/08/29 09:34:32;;;;;;;5.70;2.80;;;;;;;;;;6248808;27;20480;-69
2023/08/29 09:37:39;;;;;;;5.88;2.40;;;;;;;;;;6254245;27;20071;-68
2023/08/29 09:40:49;;;;;;;4.40;2.35;;;;;;;;;;6271196;27;20435;-69
2023/08/29 09:43:51;;;;;;;5.00;2.65;;;;;;;;;;6248618;27;20049;-67
2023/08/29 09:46:53;;;;;;;10.05;3.00;;;;;;;;;;6234679;28;20057;-70
2023/08/29 09:49:55;;;;;;;5.32;2.75;;;;;;;;;;6281080;27;20045;-70
2023/08/29 09:52:59;;;;;;;6.78;3.00;;;;;;;;;;6257249;27;20757;-68
2023/08/29 09:56:08;;;;;;;5.05;2.67;;;;;;;;;;6229046;28;20050;-67
2023/08/29 09:59:13;;;;;;;5.25;2.55;;;;;;;;;;6232597;27;20038;-68
2023/08/29 10:02:18;;;;;;;4.40;2.90;;;;;;;;;;6228522;28;20053;-68
2023/08/29 10:05:22;;;;;;;6.85;3.40;;;;;;;;;;6237482;27;20057;-67
2023/08/29 10:08:41;;;;;;;7.07;3.08;;;;;;;;;;6248176;27;20053;-67
2023/08/29 10:11:43;;;;;;;6.78;3.15;;;;;;;;;;6242001;27;20061;-67
2023/08/29 10:14:56;;;;;;;7.47;2.83;;;;;;;;;;6231964;28;20060;-67
2023/08/29 10:17:59;;;;;;;5.47;2.85;;;;;;;;;;6243394;27;20539;-69
2023/08/29 10:21:01;;;;;;;6.15;3.28;;;;;;;;;;6268876;27;20077;-68
2023/08/29 10:24:05;;;;;;;5.43;3.20;;;;;;;;;;6224908;28;20614;-67
2023/08/29 10:27:07;;;;;;;9.77;3.45;;;;;;;;;;6226404;28;20045;-68
2023/08/29 10:30:10;;;;;;;6.00;2.92;;;;;;;;;;6271272;27;20042;-68
2023/08/29 10:33:13;;;;;;;5.40;2.75;;;;;;;;;;6234575;28;20580;-67
2023/08/29 10:36:16;;;;;;;6.90;3.58;;;;;;;;;;6228664;28;20072;-67
2023/08/29 10:39:19;;;;;;;5.90;3.35;;;;;;;;;;6236807;27;20136;-68
2023/08/29 10:42:21;;;;;;;6.30;3.78;;;;;;;;;;6224258;28;20054;-67
2023/08/29 10:45:42;;;;;;;5.80;3.80;;;;;;;;;;6233924;28;20049;-68
2023/08/29 10:48:44;;;;;;;10.05;3.65;;;;;;;;;;6230897;28;20048;-68
2023/08/29 10:52:06;;;;;;;7.20;3.15;;;;;;;;;;6232050;28;20054;-69
2023/08/29 10:55:27;;;;;;;9.30;6.95;;;;;;;;;;6232859;28;20563;-69
2023/08/29 10:58:52;;;;;;;51.85;27.50;;;;;;;;;;6224987;28;20541;-67
2023/08/29 11:02:20;;;;;;;231.18;85.15;;;;;;;;;;6233635;28;20069;-67
2023/08/29 11:05:23;;;;;;;233.18;86.45;;;;;;;;;;6243073;27;20057;-71
2023/08/29 11:08:25;;;;;;;802.78;346.95;;;;;;;;;;6272602;27;20049;-69
2023/08/29 11:11:27;;;;;;;844.13;350.60;;;;;;;;;;6226590;28;20083;-70
2023/08/29 11:14:51;;;;;;;276.55;128.63;;;;;;;;;;6237483;27;20045;-70
2023/08/29 11:18:24;;;;;;;105.38;70.72;;;;;;;;;;6233694;28;20594;-70
2023/08/29 11:21:29;;;;;;;83.07;54.33;;;;;;;;;;6235581;27;20052;-71
2023/08/29 11:24:31;;;;;;;8.02;4.18;;;;;;;;;;6257398;27;20041;-69
2023/08/29 11:27:37;;;;;;;7.88;3.63;;;;;;;;;;6233595;28;20045;-70
2023/08/29 11:30:45;;;;;;;5.38;3.80;;;;;;;;;;6228911;27;20061;-69
2023/08/29 11:33:50;;;;;;;7.10;3.97;;;;;;;;;;6225890;28;20041;-70
2023/08/29 11:36:53;;;;;;;5.13;3.42;;;;;;;;;;6232638;28;20045;-70
2023/08/29 11:40:01;;;;;;;9.43;4.32;;;;;;;;;;6248783;27;20064;-69
2023/08/29 11:43:07;;;;;;;8.02;3.72;;;;;;;;;;6246546;28;20083;-70
2023/08/29 11:46:33;;;;;;;7.18;4.28;;;;;;;;;;6241459;28;20038;-69
2023/08/29 11:49:40;;;;;;;6.05;3.78;;;;;;;;;;6278468;28;20047;-70
2023/08/29 11:52:43;;;;;;;8.82;3.92;;;;;;;;;;6262652;27;20538;-69
2023/08/29 11:55:45;;;;;;;7.40;3.95;;;;;;;;;;6248524;28;20210;-70
2023/08/29 11:58:49;;;;;;;7.00;4.93;;;;;;;;;;6252277;28;20052;-70
2023/08/29 12:01:52;;;;;;;7.68;4.45;;;;;;;;;;6221966;28;20084;-70
2023/08/29 12:04:55;;;;;;;9.15;4.93;;;;;;;;;;6258673;28;20093;-70
2023/08/29 12:07:58;;;;;;;7.65;4.75;;;;;;;;;;6233508;28;20581;-70
2023/08/29 12:11:00;;;;;;;7.57;4.78;;;;;;;;;;6233948;28;20049;-70
2023/08/29 12:14:07;;;;;;;6.90;3.70;;;;;;;;;;6250868;28;20047;-69
2023/08/29 12:17:09;;;;;;;5.55;3.95;;;;;;;;;;6254165;27;20727;-71
2023/08/29 12:20:12;;;;;;;8.75;4.18;;;;;;;;;;6259153;28;20053;-71
2023/08/29 12:23:26;;;;;;;6.88;4.32;;;;;;;;;;6263496;28;20939;-71
2023/08/29 12:26:28;;;;;;;5.93;3.75;;;;;;;;;;6296505;28;20529;-68
2023/08/29 12:29:31;;;;;;;10.68;4.68;;;;;;;;;;6259547;28;20043;-70
2023/08/29 12:32:34;;;;;;;6.55;4.40;;;;;;;;;;6241137;27;20054;-70
2023/08/29 12:35:38;;;;;;;7.45;4.88;;;;;;;;;;6250001;28;20511;-70
2023/08/29 12:38:40;;;;;;;8.15;4.63;;;;;;;;;;6254251;28;20093;-71
2023/08/29 12:41:43;;;;;;;6.75;4.57;;;;;;;;;;6282183;27;20043;-70
2023/08/29 12:44:45;;;;;;;10.00;4.85;;;;;;;;;;6236280;27;20117;-70
2023/08/29 12:47:48;;;;;;;7.00;4.43;;;;;;;;;;6315402;27;20357;-70
2023/08/29 12:50:50;;;;;;;5.93;4.22;;;;;;;;;;6262561;27;20059;-70
2023/08/29 12:53:52;;;;;;;9.93;4.85;;;;;;;;;;6239386;28;20060;-70
2023/08/29 12:56:55;;;;;;;6.88;4.57;;;;;;;;;;6327715;27;20050;-70
2023/08/29 12:59:57;;;;;;;9.07;4.63;;;;;;;;;;6274288;27;20049;-69
2023/08/29 13:03:00;;;;;;;8.45;4.82;;;;;;;;;;6285131;27;20047;-70
2023/08/29 13:06:02;;;;;;;8.88;5.65;;;;;;;;;;6268140;27;20109;-71
2023/08/29 13:09:04;;;;;;;7.18;4.65;;;;;;;;;;6234054;28;20590;-70
2023/08/29 13:12:07;;;;;;;9.77;4.25;;;;;;;;;;6264558;27;20574;-70
2023/08/29 13:15:12;;;;;;;7.45;4.50;;;;;;;;;;6327352;27;20078;-70
2023/08/29 13:18:14;;;;;;;8.30;4.88;;;;;;;;;;6259332;27;20132;-70
2023/08/29 13:21:16;;;;;;;8.35;4.78;;;;;;;;;;6272110;27;20049;-71
2023/08/29 13:24:18;;;;;;;7.97;4.35;;;;;;;;;;6324267;27;20437;-69
2023/08/29 13:27:20;;;;;;;8.45;4.47;;;;;;;;;;6282763;27;20104;-69
2023/08/29 13:30:22;;;;;;;9.85;5.43;;;;;;;;;;6257503;27;20115;-69
2023/08/29 13:33:24;;;;;;;7.00;5.22;;;;;;;;;;6239610;27;20532;-69
2023/08/29 13:36:26;;;;;;;6.50;4.13;;;;;;;;;;6297190;27;20048;-69
2023/08/29 13:39:28;;;;;;;7.22;5.35;;;;;;;;;;6260651;27;20044;-69
2023/08/29 13:42:30;;;;;;;7.30;4.75;;;;;;;;;;6280274;27;20043;-69
2023/08/29 13:45:32;;;;;;;6.20;3.95;;;;;;;;;;6257743;27;20724;-69
2023/08/29 13:48:35;;;;;;;9.90;4.35;;;;;;;;;;6246144;27;20053;-70
2023/08/29 13:51:37;;;;;;;8.70;3.85;;;;;;;;;;6279380;27;20099;-70
2023/08/29 13:54:39;;;;;;;10.65;3.97;;;;;;;;;;6257289;27;20041;-69
2023/08/29 13:57:41;;;;;;;6.95;4.57;;;;;;;;;;6285542;27;20050;-70
2023/08/29 14:00:43;;;;;;;10.38;4.90;;;;;;;;;;6270185;27;20034;-69
2023/08/29 14:03:45;;;;;;;12.50;5.38;;;;;;;;;;6248789;27;20047;-69
2023/08/29 14:06:47;;;;;;;7.82;4.20;;;;;;;;;;6235358;27;20050;-69
2023/08/29 14:09:50;;;;;;;7.03;4.82;;;;;;;;;;6239225;27;20063;-69
2023/08/29 14:12:52;;;;;;;7.53;4.38;;;;;;;;;;6277646;27;20049;-70
2023/08/29 14:16:03;;;;;;;7.35;4.25;;;;;;;;;;6262928;27;20064;-70
2023/08/29 14:19:06;;;;;;;10.32;4.85;;;;;;;;;;6239009;27;20706;-70
2023/08/29 14:22:07;;;;;;;7.20;4.80;;;;;;;;;;6240656;27;20452;-71
2023/08/29 14:25:09;;;;;;;8.75;4.47;;;;;;;;;;6285911;27;20058;-71
2023/08/29 14:28:11;;;;;;;6.15;4.50;;;;;;;;;;6290279;27;20445;-69
2023/08/29 14:31:14;;;;;;;8.10;4.32;;;;;;;;;;6264607;27;20050;-70
2023/08/29 14:34:16;;;;;;;6.22;3.75;;;;;;;;;;6267609;27;20060;-69
2023/08/29 14:37:18;;;;;;;10.05;4.88;;;;;;;;;;6267917;27;20038;-69
2023/08/29 14:40:24;;;;;;;8.77;5.13;;;;;;;;;;6255410;27;20218;-68
2023/08/29 14:43:26;;;;;;;6.65;3.90;;;;;;;;;;6268391;27;20122;-68
2023/08/29 14:46:28;;;;;;;6.18;3.85;;;;;;;;;;6286088;27;20054;-69
2023/08/29 14:49:30;;;;;;;12.95;4.80;;;;;;;;;;6271157;27;20716;-70
2023/08/29 14:52:34;;;;;;;9.43;4.53;;;;;;;;;;6310574;27;20037;-71
2023/08/29 14:55:36;;;;;;;;;;;;;;;;;;6228224;27;20054;-69
2023/08/29 14:58:42;;;;;;;10.02;4.20;;;;;;;;;;6256343;27;19929;-71
2023/08/29 15:01:44;;;;;;;8.32;4.20;;;;;;;;;;6219425;27;20198;-70
2023/08/29 15:04:47;;;;;;;13.13;4.90;;;;;;;;;;6227880;27;20111;-71
2023/08/29 15:07:49;;;;;;;7.28;4.13;;;;;;;;;;6249759;27;20152;-71
2023/08/29 15:10:52;;;;;;;6.50;4.30;;;;;;;;;;6256436;27;20088;-73
2023/08/29 15:13:54;;;;;;;8.68;4.10;;;;;;;;;;6231232;28;20053;-72
2023/08/29 15:16:56;;;;;;;9.65;4.20;;;;;;;;;;6223488;28;20050;-72
2023/08/29 15:19:59;;;;;;;6.97;4.35;;;;;;;;;;6225257;28;20088;-72
2023/08/29 15:23:03;;;;;;;10.57;5.05;;;;;;;;;;6266533;27;20406;-72
2023/08/29 15:26:05;;;;;;;7.15;4.53;;;;;;;;;;6249749;27;20113;-72
2023/08/29 15:29:07;;;;;;;8.38;4.85;;;;;;;;;;6266466;27;20035;-73
2023/08/29 15:32:09;;;;;;;8.38;4.18;;;;;;;;;;6234146;27;20048;-69
2023/08/29 15:35:11;;;;;;;9.02;4.63;;;;;;;;;;6244157;27;20528;-71
2023/08/29 15:38:13;;;;;;;10.73;5.10;;;;;;;;;;6273556;27;20043;-70
2023/08/29 15:41:16;;;;;;;7.57;4.40;;;;;;;;;;6234155;28;20037;-71
2023/08/29 15:44:18;;;;;;;8.90;4.75;;;;;;;;;;6257560;27;20061;-71
2023/08/29 15:47:21;;;;;;;7.90;4.85;;;;;;;;;;6241784;28;20053;-72
2023/08/29 15:50:24;;;;;;;8.65;6.68;;;;;;;;;;6239021;27;20080;-71
2023/08/29 15:53:28;;;;;;;7.93;4.20;;;;;;;;;;6275041;28;20411;-71
2023/08/29 15:56:31;;;;;;;8.77;4.93;;;;;;;;;;6233893;28;20051;-72
2023/08/29 15:59:33;;;;;;;6.80;4.10;;;;;;;;;;6232073;28;20046;-70
2023/08/29 16:02:35;;;;;;;15.40;6.05;;;;;;;;;;6244727;27;20050;-70
2023/08/29 16:05:37;;;;;;;12.00;5.05;;;;;;;;;;6242608;27;20125;-70
2023/08/29 16:08:40;;;;;;;10.80;5.75;;;;;;;;;;6253598;28;20039;-70
2023/08/29 16:11:42;;;;;;;13.38;5.55;;;;;;;;;;6231704;28;20544;-72
2023/08/29 16:14:44;;;;;;;11.02;6.28;;;;;;;;;;6254125;27;20103;-71
2023/08/29 16:17:47;;;;;;;11.98;6.95;;;;;;;;;;6230392;27;20487;-71
2023/08/29 16:20:53;;;;;;;15.90;6.28;;;;;;;;;;6230526;27;20748;-71
2023/08/29 16:23:55;;;;;;;10.07;6.22;;;;;;;;;;6278646;27;20046;-72
2023/08/29 16:26:57;;;;;;;15.23;7.60;;;;;;;;;;6240157;27;20741;-70
2023/08/29 16:29:59;;;;;;;15.32;6.35;;;;;;;;;;6238588;27;20053;-70
2023/08/29 16:33:01;;;;;;;11.40;5.82;;;;;;;;;;6227767;27;20052;-71
2023/08/29 16:36:04;;;;;;;14.05;5.88;;;;;;;;;;6295396;27;20042;-71
2023/08/29 16:39:09;;;;;;;16.63;7.20;;;;;;;;;;6253941;27;20625;-73
2023/08/29 16:42:11;;;;;;;19.23;8.95;;;;;;;;;;6239694;27;20446;-73
2023/08/29 16:45:13;;;;;;;18.67;7.97;;;;;;;;;;6239236;27;20114;-72
2023/08/29 16:48:15;;;;;;;20.25;8.63;;;;;;;;;;6247665;27;20140;-71
2023/08/29 16:51:18;;;;;;;15.82;6.70;;;;;;;;;;6259811;27;20587;-71
2023/08/29 16:54:21;;;;;;;13.52;7.25;;;;;;;;;;6251749;27;20056;-70
2023/08/29 16:57:23;;;;;;;13.73;6.07;;;;;;;;;;6239793;27;20035;-70
2023/08/29 17:00:27;;;;;;;15.70;7.20;;;;;;;;;;6234062;27;20052;-70
2023/08/29 17:03:29;;;;;;;12.10;7.57;;;;;;;;;;6261886;27;20107;-70
2023/08/29 17:06:31;;;;;;;13.57;6.72;;;;;;;;;;6275012;27;20049;-69
2023/08/29 17:09:33;;;;;;;12.45;7.07;;;;;;;;;;6251440;27;20044;-71
2023/08/29 17:12:35;;;;;;;13.93;6.80;;;;;;;;;;6249784;27;20050;-69
2023/08/29 17:15:37;;;;;;;9.55;6.38;;;;;;;;;;6235119;27;20045;-71
2023/08/29 17:18:40;;;;;;;14.95;6.63;;;;;;;;;;6252851;27;20209;-70
2023/08/29 17:21:42;;;;;;;13.18;7.75;;;;;;;;;;6296967;27;20136;-69
2023/08/29 17:24:45;;;;;;;10.70;6.78;;;;;;;;;;6281998;27;20042;-70
2023/08/29 17:27:47;;;;;;;12.07;8.02;;;;;;;;;;6271568;27;20046;-71
2023/08/29 17:30:49;;;;;;;11.85;7.82;;;;;;;;;;6270293;27;20079;-69
2023/08/29 17:33:51;;;;;;;15.45;7.85;;;;;;;;;;6264617;27;20072;-69
2023/08/29 17:36:57;;;;;;;8.80;6.43;;;;;;;;;;6240537;27;20061;-70
2023/08/29 17:40:00;;;;;;;10.63;6.80;;;;;;;;;;6260546;27;20146;-70
2023/08/29 17:43:02;;;;;;;11.13;6.90;;;;;;;;;;6262837;27;20047;-70
2023/08/29 17:46:06;;;;;;;10.45;6.85;;;;;;;;;;6285417;27;20113;-69
2023/08/29 17:49:08;;;;;;;12.15;9.43;;;;;;;;;;6257357;27;20038;-71
2023/08/29 17:52:10;;;;;;;12.02;6.78;;;;;;;;;;6256663;27;20068;-71
2023/08/29 17:55:12;;;;;;;12.23;7.15;;;;;;;;;;6252398;27;20039;-71
2023/08/29 17:58:14;;;;;;;15.20;7.20;;;;;;;;;;6246791;28;20053;-70
2023/08/29 18:01:17;;;;;;;9.95;7.20;;;;;;;;;;6270053;27;20049;-70
2023/08/29 18:04:19;;;;;;;9.75;6.30;;;;;;;;;;6253891;27;20054;-68
2023/08/29 18:07:21;;;;;;;12.00;5.88;;;;;;;;;;6242246;28;20495;-70
2023/08/29 18:10:23;;;;;;;9.63;5.53;;;;;;;;;;6244220;27;20528;-68
2023/08/29 18:13:26;;;;;;;8.52;5.47;;;;;;;;;;6242187;27;20123;-69
2023/08/29 18:16:28;;;;;;;7.90;6.07;;;;;;;;;;6234537;28;20045;-69